Terminal Aerodrome Forecast
Issued by NWS King Salmon, AK

Home | Current Version | Previous Version | Text Only | Print | Product List | Glossary On
Versions: 1 2 3 4 5 6 7 8 9 10 11 12 13 14 15 16 17 18 19 20 21 22 23 24 25 26 27 28 29 30
000
FTAK31 PANC 022011 AAA
TAFAKN
TAF AMD
PAKN 022011Z 0220/0318 23012KT 6SM BR SCT006 SCT012 OVC025
      TEMPO 0220/0222 3SM -DZ BR BKN009 OVC015
     FM030300 23009KT P6SM BKN050
     FM030700 21006KT 4SM BR BKN015=

USA.gov is the U.S. government's official web portal to all federal, state and local government web resources and services.